sensor_id;sensor_type;location;lat;lon;timestamp;pressure;altitude;pressure_sealevel;temperature;humidity
54194;BME280;40102;50.906;6.972;2023-03-16T00:00:49;101346.25;;;4.17;67.74
54194;BME280;40102;50.906;6.972;2023-03-16T00:03:14;101344.56;;;4.13;67.98
54194;BME280;40102;50.906;6.972;2023-03-16T00:05:51;101341.88;;;4.16;67.61
54194;BME280;40102;50.906;6.972;2023-03-16T00:08:17;101342.53;;;4.27;67.41
54194;BME280;40102;50.906;6.972;2023-03-16T00:10:44;101342.25;;;4.41;67.59
54194;BME280;40102;50.906;6.972;2023-03-16T00:13:12;101332.50;;;4.43;66.25
54194;BME280;40102;50.906;6.972;2023-03-16T00:15:38;101348.53;;;4.35;66.66
54194;BME280;40102;50.906;6.972;2023-03-16T00:18:03;101342.47;;;4.30;66.80
54194;BME280;40102;50.906;6.972;2023-03-16T00:20:28;101346.81;;;4.33;66.66
54194;BME280;40102;50.906;6.972;2023-03-16T00:22:54;101338.09;;;4.28;66.54
54194;BME280;40102;50.906;6.972;2023-03-16T00:25:19;101340.69;;;4.31;67.07
54194;BME280;40102;50.906;6.972;2023-03-16T00:27:44;101332.91;;;4.23;66.42
54194;BME280;40102;50.906;6.972;2023-03-16T00:30:10;101324.91;;;4.25;66.59
54194;BME280;40102;50.906;6.972;2023-03-16T00:32:37;101328.38;;;4.28;66.56
54194;BME280;40102;50.906;6.972;2023-03-16T00:35:03;101319.59;;;4.26;66.59
54194;BME280;40102;50.906;6.972;2023-03-16T00:37:30;101316.88;;;4.29;66.03
54194;BME280;40102;50.906;6.972;2023-03-16T00:39:57;101307.94;;;4.35;66.48
54194;BME280;40102;50.906;6.972;2023-03-16T00:42:25;101310.59;;;4.35;66.64
54194;BME280;40102;50.906;6.972;2023-03-16T00:44:57;101315.03;;;4.33;65.64
54194;BME280;40102;50.906;6.972;2023-03-16T00:47:28;101314.38;;;4.21;66.20
54194;BME280;40102;50.906;6.972;2023-03-16T00:49:54;101316.97;;;4.25;66.18
54194;BME280;40102;50.906;6.972;2023-03-16T00:52:20;101320.63;;;4.19;66.00
54194;BME280;40102;50.906;6.972;2023-03-16T00:54:47;101314.50;;;4.15;66.42
54194;BME280;40102;50.906;6.972;2023-03-16T00:57:16;101318.03;;;4.16;66.52
54194;BME280;40102;50.906;6.972;2023-03-16T00:59:46;101311.94;;;4.12;67.56
54194;BME280;40102;50.906;6.972;2023-03-16T01:02:14;101318.66;;;4.29;67.19
54194;BME280;40102;50.906;6.972;2023-03-16T01:04:40;101319.28;;;4.41;66.10
54194;BME280;40102;50.906;6.972;2023-03-16T01:07:10;101320.00;;;4.49;65.43
54194;BME280;40102;50.906;6.972;2023-03-16T01:09:37;101316.66;;;4.40;65.41
54194;BME280;40102;50.906;6.972;2023-03-16T01:12:13;101320.22;;;4.39;65.58
54194;BME280;40102;50.906;6.972;2023-03-16T01:14:39;101328.25;;;4.34;65.73
54194;BME280;40102;50.906;6.972;2023-03-16T01:17:06;101328.22;;;4.36;65.18
54194;BME280;40102;50.906;6.972;2023-03-16T01:19:33;101316.72;;;4.37;65.45
54194;BME280;40102;50.906;6.972;2023-03-16T01:22:01;101311.16;;;4.49;66.27
54194;BME280;40102;50.906;6.972;2023-03-16T01:24:27;101307.56;;;4.53;64.80
54194;BME280;40102;50.906;6.972;2023-03-16T01:26:53;101311.19;;;4.47;65.44
54194;BME280;40102;50.906;6.972;2023-03-16T01:29:18;101288.50;;;4.36;65.81
54194;BME280;40102;50.906;6.972;2023-03-16T01:31:44;101287.41;;;4.46;65.03
54194;BME280;40102;50.906;6.972;2023-03-16T01:34:10;101285.78;;;4.39;66.14
54194;BME280;40102;50.906;6.972;2023-03-16T01:36:41;101277.56;;;4.51;65.90
54194;BME280;40102;50.906;6.972;2023-03-16T01:39:14;101271.03;;;4.67;65.13
54194;BME280;40102;50.906;6.972;2023-03-16T01:41:41;101276.22;;;4.72;64.28
54194;BME280;40102;50.906;6.972;2023-03-16T01:44:18;101276.03;;;4.79;64.15
54194;BME280;40102;50.906;6.972;2023-03-16T01:46:44;101266.53;;;4.71;64.45
54194;BME280;40102;50.906;6.972;2023-03-16T01:49:15;101271.75;;;4.74;64.90
54194;BME280;40102;50.906;6.972;2023-03-16T01:51:54;101271.72;;;4.75;64.09
54194;BME280;40102;50.906;6.972;2023-03-16T01:57:07;101262.22;;;4.65;63.58
54194;BME280;40102;50.906;6.972;2023-03-16T01:59:38;101252.81;;;4.52;64.39
54194;BME280;40102;50.906;6.972;2023-03-16T02:02:08;101242.19;;;4.53;65.03
54194;BME280;40102;50.906;6.972;2023-03-16T02:05:05;101245.41;;;4.68;64.83
54194;BME280;40102;50.906;6.972;2023-03-16T02:07:34;101234.47;;;4.81;64.16
54194;BME280;40102;50.906;6.972;2023-03-16T02:10:02;101232.84;;;4.76;63.10
54194;BME280;40102;50.906;6.972;2023-03-16T02:12:29;101232.94;;;4.71;63.81
54194;BME280;40102;50.906;6.972;2023-03-16T02:14:55;101232.28;;;4.62;63.80
54194;BME280;40102;50.906;6.972;2023-03-16T02:17:28;101227.00;;;4.62;64.04
54194;BME280;40102;50.906;6.972;2023-03-16T02:22:24;101233.31;;;4.56;64.10
54194;BME280;40102;50.906;6.972;2023-03-16T02:24:53;101233.44;;;4.50;64.62
54194;BME280;40102;50.906;6.972;2023-03-16T02:27:37;101239.84;;;4.40;64.05
54194;BME280;40102;50.906;6.972;2023-03-16T02:32:37;101228.19;;;4.48;64.24
54194;BME280;40102;50.906;6.972;2023-03-16T02:35:05;101214.69;;;4.59;64.24
54194;BME280;40102;50.906;6.972;2023-03-16T02:37:31;101212.97;;;4.57;64.69
54194;BME280;40102;50.906;6.972;2023-03-16T02:40:12;101210.25;;;4.60;63.94
54194;BME280;40102;50.906;6.972;2023-03-16T02:42:40;101202.09;;;4.69;64.35
54194;BME280;40102;50.906;6.972;2023-03-16T02:45:07;101205.72;;;4.65;63.17
54194;BME280;40102;50.906;6.972;2023-03-16T02:47:39;101203.09;;;4.63;63.47
54194;BME280;40102;50.906;6.972;2023-03-16T02:50:07;101200.53;;;4.60;63.77
54194;BME280;40102;50.906;6.972;2023-03-16T02:52:35;101203.97;;;4.64;63.71
54194;BME280;40102;50.906;6.972;2023-03-16T02:55:02;101200.56;;;4.59;63.38
54194;BME280;40102;50.906;6.972;2023-03-16T02:57:27;101189.31;;;4.49;63.74
54194;BME280;40102;50.906;6.972;2023-03-16T02:59:53;101193.94;;;4.39;64.07
54194;BME280;40102;50.906;6.972;2023-03-16T03:02:19;101186.22;;;4.30;65.52
54194;BME280;40102;50.906;6.972;2023-03-16T03:04:45;101182.69;;;4.30;64.49
54194;BME280;40102;50.906;6.972;2023-03-16T03:07:12;101185.16;;;4.37;64.69
54194;BME280;40102;50.906;6.972;2023-03-16T03:09:39;101193.28;;;4.30;64.76
54194;BME280;40102;50.906;6.972;2023-03-16T03:12:09;101196.84;;;4.29;64.48
54194;BME280;40102;50.906;6.972;2023-03-16T03:14:35;101180.31;;;4.17;64.90
54194;BME280;40102;50.906;6.972;2023-03-16T03:17:07;101179.53;;;4.12;64.76
54194;BME280;40102;50.906;6.972;2023-03-16T03:19:34;101188.22;;;4.19;65.82
54194;BME280;40102;50.906;6.972;2023-03-16T03:22:03;101188.13;;;4.23;65.73
54194;BME280;40102;50.906;6.972;2023-03-16T03:24:32;101189.59;;;4.37;65.09
54194;BME280;40102;50.906;6.972;2023-03-16T03:26:58;101185.81;;;4.47;64.65
54194;BME280;40102;50.906;6.972;2023-03-16T03:29:26;101188.03;;;4.65;63.62
54194;BME280;40102;50.906;6.972;2023-03-16T03:32:00;101174.66;;;4.71;63.76
54194;BME280;40102;50.906;6.972;2023-03-16T03:34:27;101171.91;;;4.74;62.63
54194;BME280;40102;50.906;6.972;2023-03-16T03:36:53;101174.53;;;4.76;62.91
54194;BME280;40102;50.906;6.972;2023-03-16T03:39:18;101170.97;;;4.77;62.98
54194;BME280;40102;50.906;6.972;2023-03-16T03:41:44;101176.47;;;4.69;63.69
54194;BME280;40102;50.906;6.972;2023-03-16T03:44:09;101178.25;;;4.69;63.32
54194;BME280;40102;50.906;6.972;2023-03-16T03:46:35;101187.34;;;4.57;62.70
54194;BME280;40102;50.906;6.972;2023-03-16T03:49:00;101173.41;;;4.49;63.36
54194;BME280;40102;50.906;6.972;2023-03-16T03:51:30;101170.88;;;4.44;63.51
54194;BME280;40102;50.906;6.972;2023-03-16T03:53:57;101173.66;;;4.38;64.77
54194;BME280;40102;50.906;6.972;2023-03-16T03:56:23;101173.50;;;4.46;64.34
54194;BME280;40102;50.906;6.972;2023-03-16T03:58:49;101171.88;;;4.39;64.80
54194;BME280;40102;50.906;6.972;2023-03-16T04:01:15;101174.31;;;4.48;64.56
54194;BME280;40102;50.906;6.972;2023-03-16T04:03:41;101173.78;;;4.34;64.01
54194;BME280;40102;50.906;6.972;2023-03-16T04:06:08;101165.06;;;4.29;64.74
54194;BME280;40102;50.906;6.972;2023-03-16T04:08:34;101165.91;;;4.31;64.76
54194;BME280;40102;50.906;6.972;2023-03-16T04:11:00;101173.63;;;4.40;64.60
54194;BME280;40102;50.906;6.972;2023-03-16T04:13:26;101172.63;;;4.45;63.96
54194;BME280;40102;50.906;6.972;2023-03-16T04:15:59;101179.56;;;4.51;63.94
54194;BME280;40102;50.906;6.972;2023-03-16T04:18:28;101166.53;;;4.42;63.57
54194;BME280;40102;50.906;6.972;2023-03-16T04:20:55;101162.50;;;4.24;64.78
54194;BME280;40102;50.906;6.972;2023-03-16T04:23:21;101160.97;;;4.14;65.47
54194;BME280;40102;50.906;6.972;2023-03-16T04:25:47;101157.63;;;4.06;65.75
54194;BME280;40102;50.906;6.972;2023-03-16T04:28:13;101153.91;;;4.14;66.09
54194;BME280;40102;50.906;6.972;2023-03-16T04:30:43;101157.94;;;4.31;65.51
54194;BME280;40102;50.906;6.972;2023-03-16T04:33:09;101160.44;;;4.38;64.66
54194;BME280;40102;50.906;6.972;2023-03-16T04:35:35;101152.34;;;4.44;65.00
54194;BME280;40102;50.906;6.972;2023-03-16T04:38:03;101147.66;;;4.55;64.54
54194;BME280;40102;50.906;6.972;2023-03-16T04:40:29;101139.66;;;4.57;63.78
54194;BME280;40102;50.906;6.972;2023-03-16T04:42:55;101137.97;;;4.54;64.10
54194;BME280;40102;50.906;6.972;2023-03-16T04:45:21;101136.19;;;4.55;64.74
54194;BME280;40102;50.906;6.972;2023-03-16T04:47:47;101139.06;;;4.46;64.24
54194;BME280;40102;50.906;6.972;2023-03-16T04:50:14;101139.19;;;4.40;64.73
54194;BME280;40102;50.906;6.972;2023-03-16T04:52:40;101131.31;;;4.37;64.37
54194;BME280;40102;50.906;6.972;2023-03-16T04:55:06;101124.34;;;4.33;64.69
54194;BME280;40102;50.906;6.972;2023-03-16T04:57:32;101126.97;;;4.34;64.67
54194;BME280;40102;50.906;6.972;2023-03-16T04:59:59;101129.53;;;4.37;65.55
54194;BME280;40102;50.906;6.972;2023-03-16T05:02:25;101113.53;;;4.42;64.47
54194;BME280;40102;50.906;6.972;2023-03-16T05:04:50;101118.78;;;4.45;64.67
54194;BME280;40102;50.906;6.972;2023-03-16T05:07:17;101118.84;;;4.42;64.86
54194;BME280;40102;50.906;6.972;2023-03-16T05:09:43;101119.69;;;4.44;65.02
54194;BME280;40102;50.906;6.972;2023-03-16T05:12:09;101124.06;;;4.45;64.14
54194;BME280;40102;50.906;6.972;2023-03-16T05:14:35;101119.78;;;4.39;64.25
54194;BME280;40102;50.906;6.972;2023-03-16T05:17:02;101120.88;;;4.31;64.76
54194;BME280;40102;50.906;6.972;2023-03-16T05:19:28;101124.34;;;4.33;65.09
54194;BME280;40102;50.906;6.972;2023-03-16T05:21:55;101120.97;;;4.26;65.68
54194;BME280;40102;50.906;6.972;2023-03-16T05:24:21;101117.53;;;4.22;65.34
54194;BME280;40102;50.906;6.972;2023-03-16T05:26:48;101121.25;;;4.14;65.56
54194;BME280;40102;50.906;6.972;2023-03-16T05:29:14;101123.91;;;4.14;66.67
54194;BME280;40102;50.906;6.972;2023-03-16T05:31:40;101116.69;;;4.20;66.12
54194;BME280;40102;50.906;6.972;2023-03-16T05:34:07;101118.09;;;4.37;65.86
54194;BME280;40102;50.906;6.972;2023-03-16T05:36:33;101119.59;;;4.47;66.01
54194;BME280;40102;50.906;6.972;2023-03-16T05:39:00;101122.84;;;4.58;65.26
54194;BME280;40102;50.906;6.972;2023-03-16T05:41:26;101117.47;;;4.61;65.18
54194;BME280;40102;50.906;6.972;2023-03-16T05:43:53;101118.16;;;4.69;65.28
54194;BME280;40102;50.906;6.972;2023-03-16T05:46:18;101114.53;;;4.73;64.92
54194;BME280;40102;50.906;6.972;2023-03-16T05:48:44;101111.00;;;4.73;64.50
54194;BME280;40102;50.906;6.972;2023-03-16T05:51:10;101113.66;;;4.73;64.87
54194;BME280;40102;50.906;6.972;2023-03-16T05:53:38;101115.63;;;4.65;63.97
54194;BME280;40102;50.906;6.972;2023-03-16T05:56:04;101121.13;;;4.57;65.34
54194;BME280;40102;50.906;6.972;2023-03-16T05:58:33;101112.31;;;4.57;65.67
54194;BME280;40102;50.906;6.972;2023-03-16T06:00:59;101119.31;;;4.59;65.03
54194;BME280;40102;50.906;6.972;2023-03-16T06:03:29;101124.72;;;4.54;64.85
54194;BME280;40102;50.906;6.972;2023-03-16T06:05:56;101115.78;;;4.59;65.49
54194;BME280;40102;50.906;6.972;2023-03-16T06:08:22;101113.72;;;4.70;65.57
54194;BME280;40102;50.906;6.972;2023-03-16T06:10:48;101118.97;;;4.73;64.34
54194;BME280;40102;50.906;6.972;2023-03-16T06:13:13;101124.34;;;4.70;64.88
54194;BME280;40102;50.906;6.972;2023-03-16T06:15:39;101124.22;;;4.74;64.40
54194;BME280;40102;50.906;6.972;2023-03-16T06:18:08;101137.78;;;4.62;64.64
54194;BME280;40102;50.906;6.972;2023-03-16T06:20:34;101130.66;;;4.64;65.82
54194;BME280;40102;50.906;6.972;2023-03-16T06:23:00;101136.88;;;4.63;65.00
54194;BME280;40102;50.906;6.972;2023-03-16T06:25:26;101132.44;;;4.64;65.64
54194;BME280;40102;50.906;6.972;2023-03-16T06:27:51;101133.47;;;4.58;64.70
54194;BME280;40102;50.906;6.972;2023-03-16T06:30:17;101134.09;;;4.68;77.66
54194;BME280;40102;50.906;6.972;2023-03-16T06:32:43;101129.47;;;5.41;86.60
54194;BME280;40102;50.906;6.972;2023-03-16T06:35:10;101126.25;;;5.92;74.21
54194;BME280;40102;50.906;6.972;2023-03-16T06:37:36;101109.66;;;6.41;70.77
54194;BME280;40102;50.906;6.972;2023-03-16T06:40:03;101115.31;;;6.85;67.33
54194;BME280;40102;50.906;6.972;2023-03-16T06:42:29;101116.66;;;6.96;62.33
54194;BME280;40102;50.906;6.972;2023-03-16T06:44:54;101117.44;;;6.73;59.75
54194;BME280;40102;50.906;6.972;2023-03-16T06:47:21;101120.16;;;6.45;60.22
54194;BME280;40102;50.906;6.972;2023-03-16T06:49:47;101126.53;;;6.12;60.57
54194;BME280;40102;50.906;6.972;2023-03-16T06:52:13;101130.69;;;5.91;61.27
54194;BME280;40102;50.906;6.972;2023-03-16T06:54:40;101117.75;;;5.49;62.49
54194;BME280;40102;50.906;6.972;2023-03-16T06:57:07;101134.91;;;5.36;63.87
54194;BME280;40102;50.906;6.972;2023-03-16T06:59:33;101137.03;;;5.24;63.21
54194;BME280;40102;50.906;6.972;2023-03-16T07:02:00;101139.13;;;5.12;63.27
54194;BME280;40102;50.906;6.972;2023-03-16T07:04:26;101135.66;;;5.10;63.81
54194;BME280;40102;50.906;6.972;2023-03-16T07:06:51;101144.88;;;4.96;64.23
54194;BME280;40102;50.906;6.972;2023-03-16T07:09:17;101139.44;;;5.00;64.80
54194;BME280;40102;50.906;6.972;2023-03-16T07:11:42;101142.16;;;4.99;64.24
54194;BME280;40102;50.906;6.972;2023-03-16T07:14:09;101140.94;;;4.76;65.50
54194;BME280;40102;50.906;6.972;2023-03-16T07:16:36;101139.06;;;4.81;65.61
54194;BME280;40102;50.906;6.972;2023-03-16T07:19:03;101145.97;;;4.87;64.98
54194;BME280;40102;50.906;6.972;2023-03-16T07:21:29;101143.97;;;4.97;65.65
54194;BME280;40102;50.906;6.972;2023-03-16T07:24:03;101141.88;;;5.09;65.04
54194;BME280;40102;50.906;6.972;2023-03-16T07:26:29;101150.72;;;5.08;64.20
54194;BME280;40102;50.906;6.972;2023-03-16T07:29:00;101150.97;;;4.99;64.17
54194;BME280;40102;50.906;6.972;2023-03-16T07:31:27;101140.72;;;4.85;65.12
54194;BME280;40102;50.906;6.972;2023-03-16T07:33:54;101151.47;;;4.79;64.88
54194;BME280;40102;50.906;6.972;2023-03-16T07:36:22;101155.19;;;4.72;65.08
54194;BME280;40102;50.906;6.972;2023-03-16T07:38:48;101149.00;;;4.72;65.60
54194;BME280;40102;50.906;6.972;2023-03-16T07:41:14;101143.44;;;4.82;65.64
54194;BME280;40102;50.906;6.972;2023-03-16T07:43:41;101144.44;;;4.78;65.53
54194;BME280;40102;50.906;6.972;2023-03-16T07:46:10;101140.72;;;4.85;65.60
54194;BME280;40102;50.906;6.972;2023-03-16T07:48:42;101151.97;;;4.95;65.66
54194;BME280;40102;50.906;6.972;2023-03-16T07:51:08;101141.22;;;5.00;65.70
54194;BME280;40102;50.906;6.972;2023-03-16T07:53:34;101140.13;;;5.08;64.98
54194;BME280;40102;50.906;6.972;2023-03-16T07:56:03;101136.84;;;4.99;64.86
54194;BME280;40102;50.906;6.972;2023-03-16T07:58:29;101130.59;;;5.01;65.24
54194;BME280;40102;50.906;6.972;2023-03-16T08:00:56;101142.16;;;4.99;65.66
54194;BME280;40102;50.906;6.972;2023-03-16T08:03:23;101126.25;;;4.99;66.30
54194;BME280;40102;50.906;6.972;2023-03-16T08:05:49;101121.75;;;5.01;66.24
54194;BME280;40102;50.906;6.972;2023-03-16T08:08:16;101126.00;;;5.08;65.88
54194;BME280;40102;50.906;6.972;2023-03-16T08:10:42;101119.75;;;5.10;65.85
54194;BME280;40102;50.906;6.972;2023-03-16T08:13:11;101122.38;;;5.10;65.22
54194;BME280;40102;50.906;6.972;2023-03-16T08:15:38;101125.88;;;5.12;65.80
54194;BME280;40102;50.906;6.972;2023-03-16T08:18:04;101127.75;;;5.09;65.37
54194;BME280;40102;50.906;6.972;2023-03-16T08:20:31;101132.34;;;5.02;65.36
54194;BME280;40102;50.906;6.972;2023-03-16T08:23:00;101142.91;;;5.04;65.55
54194;BME280;40102;50.906;6.972;2023-03-16T08:25:26;101126.94;;;5.05;66.68
54194;BME280;40102;50.906;6.972;2023-03-16T08:27:52;101136.53;;;5.11;65.90
54194;BME280;40102;50.906;6.972;2023-03-16T08:30:18;101134.63;;;5.16;65.96
54194;BME280;40102;50.906;6.972;2023-03-16T08:32:44;101140.50;;;5.26;66.74
54194;BME280;40102;50.906;6.972;2023-03-16T08:35:12;101133.66;;;5.18;65.03
54194;BME280;40102;50.906;6.972;2023-03-16T08:37:40;101130.13;;;5.18;65.68
54194;BME280;40102;50.906;6.972;2023-03-16T08:40:08;101121.03;;;5.27;65.75
54194;BME280;40102;50.906;6.972;2023-03-16T08:42:43;101117.34;;;5.32;64.72
54194;BME280;40102;50.906;6.972;2023-03-16T08:45:10;101114.59;;;5.35;65.36
54194;BME280;40102;50.906;6.972;2023-03-16T08:47:36;101116.31;;;5.38;64.80
54194;BME280;40102;50.906;6.972;2023-03-16T08:50:03;101094.84;;;5.45;65.12
54194;BME280;40102;50.906;6.972;2023-03-16T08:52:33;101115.00;;;5.52;64.98
54194;BME280;40102;50.906;6.972;2023-03-16T08:55:01;101122.81;;;5.57;64.70
54194;BME280;40102;50.906;6.972;2023-03-16T08:57:30;101108.72;;;5.55;64.28
54194;BME280;40102;50.906;6.972;2023-03-16T08:59:55;101108.88;;;5.50;64.49
54194;BME280;40102;50.906;6.972;2023-03-16T09:02:21;101108.03;;;5.48;64.77
54194;BME280;40102;50.906;6.972;2023-03-16T09:04:47;101127.56;;;5.46;65.23
54194;BME280;40102;50.906;6.972;2023-03-16T09:07:13;101110.88;;;5.42;64.58
54194;BME280;40102;50.906;6.972;2023-03-16T09:09:39;101115.13;;;5.48;65.58
54194;BME280;40102;50.906;6.972;2023-03-16T09:12:11;101107.72;;;5.59;65.61
54194;BME280;40102;50.906;6.972;2023-03-16T09:14:38;101090.66;;;5.68;65.56
54194;BME280;40102;50.906;6.972;2023-03-16T09:17:05;101093.97;;;5.76;65.29
54194;BME280;40102;50.906;6.972;2023-03-16T09:19:33;101099.13;;;5.80;64.71
54194;BME280;40102;50.906;6.972;2023-03-16T09:21:59;101103.34;;;5.88;64.69
54194;BME280;40102;50.906;6.972;2023-03-16T09:24:24;101093.53;;;5.91;64.43
54194;BME280;40102;50.906;6.972;2023-03-16T09:26:50;101110.34;;;5.92;64.19
54194;BME280;40102;50.906;6.972;2023-03-16T09:29:17;101110.34;;;5.92;64.45
54194;BME280;40102;50.906;6.972;2023-03-16T09:31:44;101107.53;;;5.96;64.39
54194;BME280;40102;50.906;6.972;2023-03-16T09:34:11;101112.75;;;5.99;64.69
54194;BME280;40102;50.906;6.972;2023-03-16T09:36:37;101097.59;;;6.03;65.33
54194;BME280;40102;50.906;6.972;2023-03-16T09:39:03;101093.94;;;6.07;65.29
54194;BME280;40102;50.906;6.972;2023-03-16T09:46:50;101086.78;;;6.09;65.17
54194;BME280;40102;50.906;6.972;2023-03-16T09:49:19;101085.91;;;6.08;64.34
54194;BME280;40102;50.906;6.972;2023-03-16T09:52:10;101071.72;;;6.09;64.26
54194;BME280;40102;50.906;6.972;2023-03-16T09:57:31;101068.81;;;6.17;64.88
54194;BME280;40102;50.906;6.972;2023-03-16T10:00:20;101070.50;;;6.20;63.95
54194;BME280;40102;50.906;6.972;2023-03-16T10:02:57;101070.34;;;6.24;64.36
54194;BME280;40102;50.906;6.972;2023-03-16T10:05:28;101067.75;;;6.23;64.68
54194;BME280;40102;50.906;6.972;2023-03-16T10:16:25;101053.50;;;6.25;64.08
54194;BME280;40102;50.906;6.972;2023-03-16T10:18:57;101060.41;;;6.31;63.27
54194;BME280;40102;50.906;6.972;2023-03-16T10:21:26;101046.34;;;6.27;63.15
54194;BME280;40102;50.906;6.972;2023-03-16T10:23:57;101043.75;;;6.26;63.30
54194;BME280;40102;50.906;6.972;2023-03-16T10:26:32;101068.38;;;6.31;63.92
54194;BME280;40102;50.906;6.972;2023-03-16T10:29:10;101049.78;;;6.31;63.60
54194;BME280;40102;50.906;6.972;2023-03-16T10:31:39;101054.13;;;6.33;63.57
54194;BME280;40102;50.906;6.972;2023-03-16T10:34:06;101046.09;;;6.35;64.14
54194;BME280;40102;50.906;6.972;2023-03-16T10:36:40;101034.34;;;6.42;63.67
54194;BME280;40102;50.906;6.972;2023-03-16T10:39:11;101047.16;;;6.56;64.12
54194;BME280;40102;50.906;6.972;2023-03-16T10:41:42;101049.81;;;6.56;63.55
54194;BME280;40102;50.906;6.972;2023-03-16T10:44:14;101049.63;;;6.62;63.21
54194;BME280;40102;50.906;6.972;2023-03-16T10:46:49;101042.47;;;6.64;64.06
54194;BME280;40102;50.906;6.972;2023-03-16T10:49:26;101046.59;;;6.72;63.55
54194;BME280;40102;50.906;6.972;2023-03-16T10:51:54;101036.66;;;6.77;63.26
54194;BME280;40102;50.906;6.972;2023-03-16T10:54:28;101016.09;;;6.82;62.57
54194;BME280;40102;50.906;6.972;2023-03-16T10:56:55;101020.38;;;6.87;62.51
54194;BME280;40102;50.906;6.972;2023-03-16T10:59:33;101022.72;;;6.96;62.85
54194;BME280;40102;50.906;6.972;2023-03-16T11:02:14;101022.59;;;6.99;62.39
54194;BME280;40102;50.906;6.972;2023-03-16T11:04:40;101010.13;;;7.01;62.29
54194;BME280;40102;50.906;6.972;2023-03-16T11:07:06;101010.72;;;7.09;61.99
54194;BME280;40102;50.906;6.972;2023-03-16T11:09:35;100991.63;;;7.21;61.76
54194;BME280;40102;50.906;6.972;2023-03-16T11:14:48;100996.44;;;7.35;61.45
54194;BME280;40102;50.906;6.972;2023-03-16T11:17:18;100996.03;;;7.45;61.67
54194;BME280;40102;50.906;6.972;2023-03-16T11:19:51;100978.16;;;7.49;60.83
54194;BME280;40102;50.906;6.972;2023-03-16T11:22:21;100992.09;;;7.56;60.10
54194;BME280;40102;50.906;6.972;2023-03-16T11:29:58;100968.44;;;7.70;58.50
54194;BME280;40102;50.906;6.972;2023-03-16T11:32:32;100972.84;;;7.71;58.75
54194;BME280;40102;50.906;6.972;2023-03-16T11:34:59;100960.66;;;7.87;58.30
54194;BME280;40102;50.906;6.972;2023-03-16T11:37:59;100964.75;;;7.96;58.09
54194;BME280;40102;50.906;6.972;2023-03-16T11:40:40;100944.28;;;7.96;58.33
54194;BME280;40102;50.906;6.972;2023-03-16T11:46:07;100943.25;;;8.00;58.99
54194;BME280;40102;50.906;6.972;2023-03-16T11:49:13;100946.00;;;8.19;58.10
54194;BME280;40102;50.906;6.972;2023-03-16T11:54:42;100939.06;;;8.37;58.14
54194;BME280;40102;50.906;6.972;2023-03-16T11:57:42;100940.59;;;8.42;57.90
54194;BME280;40102;50.906;6.972;2023-03-16T12:00:35;100930.84;;;8.62;57.42
54194;BME280;40102;50.906;6.972;2023-03-16T12:17:55;100894.47;;;9.73;55.04
54194;BME280;40102;50.906;6.972;2023-03-16T12:20:39;100897.47;;;9.85;54.52
54194;BME280;40102;50.906;6.972;2023-03-16T12:23:12;100881.53;;;10.00;55.01
54194;BME280;40102;50.906;6.972;2023-03-16T12:25:41;100885.06;;;10.01;53.20
54194;BME280;40102;50.906;6.972;2023-03-16T12:28:20;100883.41;;;9.98;52.80
54194;BME280;40102;50.906;6.972;2023-03-16T12:31:06;100877.19;;;9.98;52.95
54194;BME280;40102;50.906;6.972;2023-03-16T12:37:00;100861.06;;;9.82;53.42
54194;BME280;40102;50.906;6.972;2023-03-16T12:39:57;100862.97;;;9.80;54.70
54194;BME280;40102;50.906;6.972;2023-03-16T12:45:37;100823.28;;;9.72;53.99
54194;BME280;40102;50.906;6.972;2023-03-16T12:48:31;100839.47;;;9.69;53.98
54194;BME280;40102;50.906;6.972;2023-03-16T12:51:02;100847.56;;;9.68;54.53
54194;BME280;40102;50.906;6.972;2023-03-16T12:53:45;100827.84;;;9.70;54.72
54194;BME280;40102;50.906;6.972;2023-03-16T12:56:17;100824.00;;;9.76;55.54
54194;BME280;40102;50.906;6.972;2023-03-16T12:58:46;100818.66;;;9.76;54.26
54194;BME280;40102;50.906;6.972;2023-03-16T13:01:13;100812.22;;;9.80;54.42
54194;BME280;40102;50.906;6.972;2023-03-16T13:03:41;100812.53;;;9.74;54.78
54194;BME280;40102;50.906;6.972;2023-03-16T13:06:16;100805.38;;;9.74;54.61
54194;BME280;40102;50.906;6.972;2023-03-16T13:08:47;100799.00;;;9.77;53.81
54194;BME280;40102;50.906;6.972;2023-03-16T13:11:15;100797.50;;;9.71;54.16
54194;BME280;40102;50.906;6.972;2023-03-16T13:13:52;100794.91;;;9.70;54.12
54194;BME280;40102;50.906;6.972;2023-03-16T13:16:31;100777.63;;;9.77;54.43
54194;BME280;40102;50.906;6.972;2023-03-16T13:18:57;100775.66;;;9.81;54.01
54194;BME280;40102;50.906;6.972;2023-03-16T13:21:40;100763.66;;;9.89;53.73
54194;BME280;40102;50.906;6.972;2023-03-16T13:26:40;100767.66;;;9.98;53.06
54194;BME280;40102;50.906;6.972;2023-03-16T13:29:27;100756.97;;;9.98;52.89
54194;BME280;40102;50.906;6.972;2023-03-16T13:31:58;100768.81;;;10.10;53.04
54194;BME280;40102;50.906;6.972;2023-03-16T13:34:30;100762.94;;;10.20;52.84
54194;BME280;40102;50.906;6.972;2023-03-16T13:36:57;100757.44;;;10.39;51.50
54194;BME280;40102;50.906;6.972;2023-03-16T13:39:25;100761.31;;;10.49;51.98
54194;BME280;40102;50.906;6.972;2023-03-16T13:42:13;100758.06;;;10.76;52.80
54194;BME280;40102;50.906;6.972;2023-03-16T13:44:41;100731.81;;;11.14;49.81
54194;BME280;40102;50.906;6.972;2023-03-16T13:47:12;100748.88;;;11.27;48.75
54194;BME280;40102;50.906;6.972;2023-03-16T13:49:46;100741.38;;;11.33;48.86
54194;BME280;40102;50.906;6.972;2023-03-16T13:52:27;100737.97;;;11.46;48.27
54194;BME280;40102;50.906;6.972;2023-03-16T13:54:57;100714.22;;;11.40;48.81
54194;BME280;40102;50.906;6.972;2023-03-16T13:57:26;100735.16;;;11.33;48.60
54194;BME280;40102;50.906;6.972;2023-03-16T14:00:16;100716.94;;;11.24;47.98
54194;BME280;40102;50.906;6.972;2023-03-16T14:02:45;100713.50;;;11.22;48.67
54194;BME280;40102;50.906;6.972;2023-03-16T14:05:17;100710.91;;;11.20;50.14
54194;BME280;40102;50.906;6.972;2023-03-16T14:07:48;100703.78;;;11.35;49.12
54194;BME280;40102;50.906;6.972;2023-03-16T14:10:15;100695.47;;;11.40;49.36
54194;BME280;40102;50.906;6.972;2023-03-16T14:13:06;100693.03;;;11.51;48.63